createdAt,value
2022-08-03T05:39:47.105Z,24.10
2022-08-03T05:42:37.152Z,25.00
2022-08-03T05:45:28.286Z,26.30
2022-08-03T05:48:16.159Z,27.70
2022-08-03T05:51:05.275Z,28.30
2022-08-03T05:53:52.485Z,29.30
2022-08-03T06:02:28.873Z,29.60
2022-08-03T06:05:16.341Z,29.10
2022-08-03T06:08:03.999Z,29.20
2022-08-03T06:10:51.811Z,29.20
2022-08-03T06:13:39.464Z,30.00
2022-08-03T06:16:26.935Z,31.10
2022-08-03T06:19:14.107Z,31.60
2022-08-03T06:22:01.175Z,31.70
2022-08-03T06:24:53.649Z,31.80
2022-08-03T06:27:41.944Z,32.20
2022-08-03T06:30:28.990Z,32.70
2022-08-03T06:33:17.146Z,32.80
2022-08-03T06:36:04.723Z,32.90
2022-08-03T06:38:51.856Z,33.10
2022-08-03T06:41:44.555Z,32.90
2022-08-03T06:44:32.011Z,32.30
2022-08-03T06:47:18.893Z,32.20
2022-08-03T07:01:32.257Z,31.80
2022-08-03T07:32:50.306Z,31.80
2022-08-03T07:35:38.108Z,31.10
2022-08-03T07:38:25.228Z,31.00
2022-08-03T07:41:12.686Z,31.30
2022-08-03T07:43:59.802Z,31.10
2022-08-03T07:46:48.549Z,31.40
2022-08-03T07:49:40.461Z,31.50
2022-08-03T07:52:46.328Z,31.60
2022-08-03T07:55:33.613Z,31.30
2022-08-03T07:58:24.297Z,31.60
2022-08-03T08:01:11.526Z,31.60
2022-08-03T08:04:02.556Z,31.80
2022-08-03T08:06:50.084Z,31.80
2022-08-03T08:09:37.451Z,32.00
2022-08-03T08:12:24.689Z,32.40
2022-08-03T08:15:12.230Z,32.30
2022-08-03T08:18:01.871Z,31.60
2022-08-03T08:20:49.751Z,31.80
2022-08-03T08:23:41.811Z,31.60
2022-08-03T08:26:31.110Z,31.80
2022-08-03T08:29:20.102Z,31.80
2022-08-03T08:32:07.585Z,31.90
2022-08-03T08:34:55.113Z,31.80
2022-08-03T08:37:43.640Z,31.60
2022-08-03T08:40:38.299Z,31.60
2022-08-03T08:43:25.822Z,32.00
2022-08-03T08:46:22.988Z,32.20
2022-08-03T08:49:12.905Z,32.60
2022-08-03T08:52:03.441Z,32.20
2022-08-03T08:54:53.764Z,32.40
2022-08-03T08:57:56.916Z,32.30
2022-08-03T09:00:50.829Z,32.40
2022-08-03T09:03:38.303Z,31.80
2022-08-03T09:06:25.406Z,32.00
2022-08-03T09:09:28.515Z,32.10
2022-08-03T09:12:40.848Z,32.30
2022-08-03T09:15:28.615Z,32.40
2022-08-03T09:18:33.308Z,31.60
2022-08-03T09:21:33.893Z,31.70
2022-08-03T09:24:40.633Z,31.80
2022-08-03T09:27:29.002Z,32.10
2022-08-03T09:30:33.161Z,32.40
2022-08-03T09:33:23.139Z,33.70
2022-08-03T09:36:38.002Z,33.10
2022-08-03T09:39:40.770Z,33.40
2022-08-03T09:42:29.722Z,33.60
2022-08-03T09:45:26.891Z,33.40
2022-08-03T09:48:27.649Z,33.40
2022-08-03T09:52:25.900Z,33.80
2022-08-03T09:54:30.650Z,33.80
2022-08-03T09:57:25.303Z,33.60
2022-08-03T10:00:14.557Z,33.80
2022-08-03T10:03:06.279Z,33.90
2022-08-03T10:05:59.383Z,34.10
2022-08-03T10:08:47.215Z,34.40
2022-08-03T10:11:40.973Z,34.50
2022-08-03T10:14:31.856Z,34.70
2022-08-03T10:17:20.682Z,34.50
2022-08-03T10:20:09.313Z,34.70
2022-08-03T10:22:57.275Z,35.00
2022-08-03T10:25:48.487Z,35.00
2022-08-03T10:28:46.375Z,35.30
2022-08-03T10:31:54.485Z,35.30
2022-08-03T10:35:00.351Z,35.30
2022-08-03T10:38:07.099Z,35.30
2022-08-03T10:40:59.073Z,35.50
2022-08-03T10:44:18.335Z,35.90
2022-08-03T10:47:06.596Z,35.60
2022-08-03T10:50:35.987Z,35.50
2022-08-03T10:53:55.296Z,33.90
2022-08-03T11:00:23.995Z,34.80
2022-08-03T11:04:16.677Z,35.30
2022-08-03T11:11:50.001Z,35.50
2022-08-03T11:15:05.396Z,36.00
2022-08-03T11:18:29.237Z,36.00
2022-08-03T11:21:52.817Z,34.80
2022-08-03T11:24:44.284Z,35.30
2022-08-03T11:27:36.390Z,35.50
2022-08-03T11:30:30.212Z,36.00
2022-08-03T11:33:31.733Z,36.30
2022-08-03T11:36:31.967Z,36.50
2022-08-03T11:39:22.948Z,36.80
2022-08-03T11:42:32.546Z,36.90
2022-08-03T11:45:29.032Z,36.90
2022-08-03T11:48:23.151Z,36.80
2022-08-03T11:51:24.103Z,35.90
2022-08-03T11:54:12.396Z,35.70
2022-08-03T11:57:01.404Z,35.10
2022-08-03T11:59:50.317Z,35.30
2022-08-03T12:02:40.211Z,35.80
2022-08-03T12:05:55.443Z,36.10
2022-08-03T12:12:00.523Z,36.30
2022-08-03T12:17:58.986Z,36.10
2022-08-03T12:20:49.339Z,36.40
2022-08-03T12:23:38.203Z,35.90
2022-08-03T13:06:29.644Z,35.80
2022-08-03T13:13:20.576Z,35.40
2022-08-03T13:16:42.012Z,35.80
2022-08-03T13:25:55.953Z,36.40
2022-08-03T13:28:43.611Z,36.20
2022-08-03T13:31:31.403Z,36.00
2022-08-03T13:34:22.980Z,36.30
2022-08-03T13:37:14.376Z,36.30
2022-08-03T13:40:04.596Z,36.60
2022-08-03T13:42:52.674Z,36.80
2022-08-03T13:45:39.641Z,36.90
2022-08-03T13:48:37.070Z,36.90
2022-08-03T13:51:24.757Z,36.80
2022-08-03T13:54:12.079Z,37.10
2022-08-03T13:58:01.345Z,37.20
2022-08-03T14:00:08.291Z,37.20
2022-08-03T14:03:15.362Z,37.10
2022-08-03T14:06:02.956Z,37.20
2022-08-03T14:08:51.101Z,37.20
2022-08-03T14:12:07.668Z,37.30
2022-08-03T14:14:45.436Z,37.20
2022-08-03T14:17:42.256Z,37.20
2022-08-03T14:20:47.844Z,37.30
2022-08-03T14:23:40.924Z,37.30
2022-08-03T14:26:28.471Z,37.30
2022-08-03T14:29:15.589Z,37.30
2022-08-03T14:32:10.228Z,37.30
2022-08-03T14:34:57.873Z,37.20
2022-08-03T14:37:44.992Z,37.30
2022-08-03T14:40:32.374Z,37.10
2022-08-03T14:43:21.341Z,37.00
2022-08-03T15:26:32.821Z,36.80
2022-08-03T16:06:36.013Z,35.50
